Time;durP1;ratioP1;P1;durP2;ratioP2;P2;SDS_P1;SDS_P2;PMS_P1;PMS_P2;Temp;Humidity;BMP_temperature;BMP_pressure;BME280_temperature;BME280_humidity;BME280_pressure;Samples;Min_cycle;Max_cycle;Signal;HPM_P1;HPM_P2
2022/09/13 00:00:40;;;;;;;15.50;11.10;;;17.90;99.90;;;;;;4938765;29;20082;-73
2022/09/13 00:03:11;;;;;;;13.98;10.63;;;17.90;99.90;;;;;;4954294;28;20445;-73
2022/09/13 00:05:38;;;;;;;12.90;9.38;;;17.90;99.90;;;;;;4953679;29;20118;-73
2022/09/13 00:08:05;;;;;;;15.68;11.25;;;17.90;99.90;;;;;;4937434;29;20456;-73
2022/09/13 00:10:38;;;;;;;17.65;13.13;;;17.90;99.90;;;;;;4953938;29;20105;-73
2022/09/13 00:13:05;;;;;;;19.42;13.32;;;17.90;99.90;;;;;;4937971;29;20047;-73
2022/09/13 00:15:51;;;;;;;20.65;13.43;;;17.80;99.90;;;;;;4969466;28;20058;-73
2022/09/13 00:18:36;;;;;;;16.40;12.68;;;17.90;99.90;;;;;;4953411;29;20051;-73
2022/09/13 00:21:31;;;;;;;18.00;11.52;;;17.90;99.90;;;;;;4953469;29;20047;-73
2022/09/13 00:24:24;;;;;;;13.40;10.00;;;17.90;99.90;;;;;;4953755;28;20055;-72
2022/09/13 00:26:56;;;;;;;20.38;13.85;;;17.90;99.90;;;;;;4920962;29;20469;-73
2022/09/13 00:29:22;;;;;;;20.40;14.25;;;17.90;99.90;;;;;;4921659;29;20047;-73
2022/09/13 00:31:55;;;;;;;17.10;13.02;;;17.90;99.90;;;;;;4953425;29;20155;-72
2022/09/13 00:34:31;;;;;;;22.70;14.10;;;17.90;99.90;;;;;;4953718;29;20059;-73
2022/09/13 00:36:57;;;;;;;20.05;13.80;;;17.80;99.90;;;;;;4923426;29;20062;-73
2022/09/13 00:39:22;;;;;;;23.95;14.55;;;17.80;99.90;;;;;;4925782;29;20079;-73
2022/09/13 00:41:49;;;;;;;21.00;14.18;;;17.80;99.90;;;;;;4956971;29;20051;-73
2022/09/13 00:44:53;;;;;;;24.63;16.38;;;17.70;99.90;;;;;;4925085;29;20102;-73
2022/09/13 00:47:28;;;;;;;17.60;13.65;;;17.70;99.90;;;;;;4940628;29;20047;-73
2022/09/13 00:50:15;;;;;;;19.35;12.88;;;17.70;99.90;;;;;;4940463;29;20105;-73
2022/09/13 00:52:50;;;;;;;20.50;15.43;;;17.60;99.90;;;;;;4956494;29;20118;-73
2022/09/13 00:55:25;;;;;;;20.15;14.68;;;17.60;99.90;;;;;;4956345;29;20114;-73
2022/09/13 00:58:00;;;;;;;19.90;15.07;;;17.60;99.90;;;;;;4966452;28;20125;-73
2022/09/13 01:00:35;;;;;;;23.02;14.32;;;17.60;99.90;;;;;;4943779;28;20078;-73
2022/09/13 01:03:34;;;;;;;16.45;12.75;;;17.60;99.90;;;;;;4959842;28;20151;-72
2022/09/13 01:06:10;;;;;;;24.25;16.27;;;17.60;99.90;;;;;;4927674;28;20050;-73
2022/09/13 01:08:39;;;;;;;19.83;15.18;;;17.60;99.90;;;;;;4975789;28;20043;-73
2022/09/13 01:11:16;;;;;;;22.67;15.23;;;17.60;99.90;;;;;;4942885;28;20047;-73
2022/09/13 01:13:59;;;;;;;18.15;13.07;;;17.60;99.90;;;;;;4960114;28;20054;-73
2022/09/13 01:16:25;;;;;;;18.75;14.25;;;17.60;99.90;;;;;;4959549;28;20051;-73
2022/09/13 01:18:52;;;;;;;18.33;13.20;;;17.60;99.90;;;;;;4959268;28;20043;-73
2022/09/13 01:22:12;;;;;;;17.38;12.07;;;17.60;99.90;;;;;;4960333;28;20101;-73
2022/09/13 01:24:40;;;;;;;14.15;9.82;;;17.70;99.90;;;;;;4959730;28;20474;-73
2022/09/13 01:27:35;;;;;;;15.55;11.68;;;17.60;99.90;;;;;;4975272;28;20061;-73
2022/09/13 01:30:06;;;;;;;14.30;10.50;;;17.70;99.90;;;;;;4959194;28;20062;-73
2022/09/13 01:32:35;;;;;;;16.27;11.38;;;17.60;99.90;;;;;;4942859;28;20438;-73
2022/09/13 01:35:14;;;;;;;21.40;11.85;;;17.60;99.90;;;;;;4959538;28;20051;-73
2022/09/13 01:37:51;;;;;;;15.48;10.98;;;17.60;99.90;;;;;;4943470;28;20046;-73
2022/09/13 01:40:42;;;;;;;12.48;9.55;;;17.70;99.90;;;;;;4942926;28;20042;-72
2022/09/13 01:43:59;;;;;;;18.15;12.50;;;17.70;99.90;;;;;;4972970;28;20137;-72
2022/09/13 01:46:40;;;;;;;16.52;10.45;;;17.60;99.90;;;;;;4958800;28;20093;-72
2022/09/13 01:49:46;;;;;;;14.65;10.27;;;17.70;99.90;;;;;;4973386;28;20055;-72
2022/09/13 01:52:30;;;;;;;10.82;7.63;;;17.60;99.90;;;;;;4942013;28;20142;-72
2022/09/13 01:55:08;;;;;;;17.88;11.38;;;17.60;99.90;;;;;;4958908;28;20049;-72
2022/09/13 01:58:01;;;;;;;13.98;8.82;;;17.60;99.90;;;;;;4955062;29;20059;-72
2022/09/13 02:00:27;;;;;;;;;;;17.60;99.90;;;;;;4955817;29;20051;-72
2022/09/13 02:03:05;;;;;;;15.75;11.57;;;17.60;99.90;;;;;;4955021;29;19973;-72
2022/09/13 02:05:44;;;;;;;17.15;10.73;;;17.60;99.90;;;;;;4940346;29;20079;-71
2022/09/13 02:08:34;;;;;;;14.27;10.57;;;17.90;99.90;;;;;;4956462;28;20057;-72
2022/09/13 02:11:13;;;;;;;14.52;11.18;;;17.50;99.90;;;;;;4955656;29;20086;-72
2022/09/13 02:13:55;;;;;;;14.20;9.57;;;17.50;99.90;;;;;;4941308;29;20126;-72
2022/09/13 02:16:35;;;;;;;16.67;10.70;;;17.50;99.90;;;;;;4941276;29;20063;-72
2022/09/13 02:19:14;;;;;;;11.15;8.48;;;17.50;99.90;;;;;;4956382;28;20096;-73
2022/09/13 02:21:44;;;;;;;13.70;10.07;;;17.50;99.90;;;;;;4955281;29;20051;-72
2022/09/13 02:24:21;;;;;;;15.20;10.45;;;17.50;99.90;;;;;;4923563;29;20039;-73
2022/09/13 02:27:08;;;;;;;12.57;9.32;;;17.50;99.90;;;;;;4939191;29;20128;-73
2022/09/13 02:29:44;;;;;;;9.45;8.07;;;17.50;99.90;;;;;;4924313;29;20039;-73
2022/09/13 02:33:02;;;;;;;12.45;10.40;;;17.50;99.90;;;;;;4926242;29;20114;-72
2022/09/13 02:36:07;;;;;;;14.02;9.32;;;17.50;99.90;;;;;;4933860;29;20062;-73
2022/09/13 02:38:46;;;;;;;15.50;9.52;;;17.50;99.90;;;;;;4954659;29;20134;-72
2022/09/13 02:41:36;;;;;;;13.73;10.43;;;17.60;99.90;;;;;;4954829;29;20047;-72
2022/09/13 02:44:25;;;;;;;17.10;11.52;;;17.40;99.90;;;;;;4970975;28;20051;-72
2022/09/13 02:47:22;;;;;;;16.67;11.20;;;17.40;99.90;;;;;;4938792;29;20134;-72
2022/09/13 02:49:58;;;;;;;16.65;11.52;;;17.40;99.90;;;;;;4955968;28;20043;-72
2022/09/13 02:53:02;;;;;;;15.32;11.23;;;17.30;99.90;;;;;;4922727;29;20500;-73
2022/09/13 02:55:54;;;;;;;11.25;9.05;;;17.40;99.90;;;;;;4954052;29;20118;-72
2022/09/13 02:58:41;;;;;;;15.77;12.88;;;17.30;99.90;;;;;;4954201;29;20106;-73
2022/09/13 03:01:08;;;;;;;16.05;11.45;;;17.40;99.90;;;;;;4954032;28;20098;-72
2022/09/13 03:03:41;;;;;;;18.60;13.57;;;17.30;99.90;;;;;;4938494;29;20055;-73
2022/09/13 03:06:08;;;;;;;13.52;9.70;;;17.30;99.90;;;;;;4970864;28;20130;-72
2022/09/13 03:09:04;;;;;;;17.17;12.95;;;17.30;99.90;;;;;;4941123;29;20459;-73
2022/09/13 03:11:43;;;;;;;15.40;11.70;;;17.40;99.90;;;;;;4954422;29;20070;-73
2022/09/13 03:14:38;;;;;;;18.17;12.98;;;17.40;99.90;;;;;;4937900;29;20059;-72
2022/09/13 03:17:10;;;;;;;18.27;12.90;;;17.40;99.90;;;;;;4938332;29;20461;-72
2022/09/13 03:20:09;;;;;;;19.25;13.30;;;17.40;99.90;;;;;;4954455;29;20102;-73
2022/09/13 03:23:00;;;;;;;24.20;13.57;;;17.50;99.90;;;;;;4937410;29;20105;-73
2022/09/13 03:25:59;;;;;;;17.17;11.80;;;17.50;99.90;;;;;;4938211;29;20058;-73
2022/09/13 03:28:48;;;;;;;18.55;14.02;;;17.50;99.90;;;;;;4955226;29;20043;-72
2022/09/13 03:32:05;;;;;;;20.98;14.20;;;17.60;99.90;;;;;;4939276;29;20492;-73
2022/09/13 03:34:45;;;;;;;16.10;12.52;;;17.60;99.90;;;;;;4936863;29;20054;-73
2022/09/13 03:37:16;;;;;;;21.23;15.80;;;17.60;99.90;;;;;;4936954;29;20043;-73
2022/09/13 03:39:59;;;;;;;17.40;13.38;;;17.60;99.90;;;;;;4946463;29;20070;-72
2022/09/13 03:43:17;;;;;;;21.67;14.40;;;17.60;99.90;;;;;;4937281;29;20090;-72
2022/09/13 03:46:11;;;;;;;18.50;14.13;;;17.60;99.90;;;;;;4953379;29;20542;-71
2022/09/13 03:48:40;;;;;;;19.65;14.77;;;17.60;99.90;;;;;;4937483;29;20130;-73
2022/09/13 03:51:07;;;;;;;21.73;13.48;;;17.70;99.90;;;;;;4921853;29;20057;-73
2022/09/13 03:53:55;;;;;;;22.13;13.00;;;17.70;99.90;;;;;;4951266;29;20091;-72
2022/09/13 03:56:20;;;;;;;16.55;13.63;;;17.70;99.90;;;;;;4952485;29;20059;-72
2022/09/13 03:58:53;;;;;;;17.27;13.13;;;17.60;99.90;;;;;;4952813;29;20138;-72
2022/09/13 04:01:28;;;;;;;14.57;10.07;;;17.70;99.90;;;;;;4937586;29;20388;-72
2022/09/13 04:03:59;;;;;;;14.88;10.00;;;17.60;99.90;;;;;;4953255;28;20527;-73
2022/09/13 04:06:29;;;;;;;9.90;7.88;;;17.70;99.90;;;;;;4953318;29;20121;-73
2022/09/13 04:09:02;;;;;;;9.95;7.22;;;17.70;99.90;;;;;;4938053;29;20051;-72
2022/09/13 04:11:34;;;;;;;8.10;6.32;;;17.70;99.90;;;;;;4923078;29;20059;-73
2022/09/13 04:14:00;;;;;;;11.38;8.00;;;17.70;99.90;;;;;;4958413;29;20492;-72
2022/09/13 04:16:25;;;;;;;11.02;6.35;;;17.70;99.90;;;;;;4940890;29;20058;-72
2022/09/13 04:18:51;;;;;;;8.50;6.60;;;17.70;99.90;;;;;;4956819;29;20062;-72
2022/09/13 04:21:26;;;;;;;8.85;6.28;;;17.70;99.90;;;;;;4941513;29;20058;-72
2022/09/13 04:23:58;;;;;;;8.15;5.05;;;17.70;99.90;;;;;;4973799;28;20047;-72
2022/09/13 04:26:31;;;;;;;8.27;5.15;;;17.70;99.90;;;;;;4942697;29;20058;-72
2022/09/13 04:29:05;;;;;;;7.05;4.93;;;17.70;99.90;;;;;;4973182;28;20079;-72
2022/09/13 04:31:31;;;;;;;6.82;4.50;;;17.80;99.90;;;;;;4957648;29;20449;-72
2022/09/13 04:34:22;;;;;;;5.18;4.03;;;17.70;99.90;;;;;;4957710;28;20194;-72
2022/09/13 04:36:51;;;;;;;5.28;3.70;;;17.70;99.90;;;;;;4958507;29;20110;-72
2022/09/13 04:39:18;;;;;;;4.53;3.70;;;17.80;99.90;;;;;;4956549;29;20130;-72
2022/09/13 04:41:46;;;;;;;5.07;3.67;;;17.80;99.90;;;;;;4956623;29;20130;-72
2022/09/13 04:44:14;;;;;;;3.88;3.10;;;17.70;99.90;;;;;;4972916;28;20066;-72
2022/09/13 04:46:47;;;;;;;5.63;4.03;;;17.80;99.90;;;;;;4926953;29;20140;-72
2022/09/13 04:49:16;;;;;;;6.50;4.32;;;17.80;99.90;;;;;;4972394;28;20055;-72
2022/09/13 04:51:48;;;;;;;5.85;4.70;;;17.80;99.90;;;;;;4956603;28;20488;-72
2022/09/13 04:54:21;;;;;;;6.05;4.25;;;17.80;99.90;;;;;;4956781;29;20058;-72
2022/09/13 04:56:54;;;;;;;5.60;4.18;;;17.80;99.90;;;;;;4925320;29;20050;-72
2022/09/13 04:59:33;;;;;;;5.07;3.70;;;17.80;99.90;;;;;;4943520;28;20047;-73
2022/09/13 05:01:58;;;;;;;4.57;3.50;;;17.80;99.90;;;;;;4959877;28;20043;-72
2022/09/13 05:04:26;;;;;;;4.55;3.40;;;17.80;99.90;;;;;;4943407;28;20059;-72
2022/09/13 05:06:52;;;;;;;5.35;3.40;;;17.70;99.90;;;;;;4959250;28;20443;-72
2022/09/13 05:09:27;;;;;;;5.38;3.00;;;17.80;99.90;;;;;;4976554;28;20123;-72
2022/09/13 05:11:58;;;;;;;4.38;2.40;;;17.80;99.90;;;;;;4959460;28;20076;-72
2022/09/13 05:14:34;;;;;;;4.57;3.40;;;17.80;99.90;;;;;;4974308;28;20137;-72
2022/09/13 05:16:59;;;;;;;5.43;3.13;;;17.80;99.90;;;;;;4942979;28;20047;-71
2022/09/13 05:19:26;;;;;;;3.53;2.47;;;17.70;99.90;;;;;;4958940;28;20042;-72
2022/09/13 05:21:53;;;;;;;5.05;2.88;;;17.80;99.90;;;;;;4943337;28;20068;-72
2022/09/13 05:24:26;;;;;;;4.28;2.35;;;17.80;99.90;;;;;;4958044;28;20158;-72
2022/09/13 05:26:55;;;;;;;3.33;2.25;;;17.80;99.90;;;;;;4943770;28;20154;-72
2022/09/13 05:29:38;;;;;;;3.20;2.42;;;17.80;99.90;;;;;;4974591;28;20133;-72
2022/09/13 05:32:04;;;;;;;3.97;2.60;;;17.80;99.90;;;;;;4958901;28;20090;-72
2022/09/13 05:34:37;;;;;;;4.13;2.45;;;17.80;99.90;;;;;;4974562;28;20051;-72
2022/09/13 05:37:09;;;;;;;;;;;17.80;99.90;;;;;;4975306;28;20050;-72
2022/09/13 05:39:43;;;;;;;6.63;2.92;;;17.80;99.90;;;;;;4975464;28;19925;-72
2022/09/13 05:42:09;;;;;;;7.40;2.53;;;17.80;99.90;;;;;;4942846;28;20476;-72
2022/09/13 05:44:35;;;;;;;4.68;2.35;;;17.80;99.90;;;;;;4926741;28;20047;-72
2022/09/13 05:47:12;;;;;;;6.57;2.60;;;17.80;99.90;;;;;;4957474;28;20442;-72
2022/09/13 05:49:38;;;;;;;3.92;2.50;;;17.80;99.90;;;;;;4958335;28;20046;-72
2022/09/13 05:52:04;;;;;;;6.07;2.25;;;17.80;99.90;;;;;;4942454;28;20059;-72
2022/09/13 05:54:36;;;;;;;2.55;2.00;;;17.70;99.90;;;;;;4926604;28;20105;-72
2022/09/13 05:57:03;;;;;;;;;;;17.70;99.90;;;;;;4958905;28;20085;-73
2022/09/13 05:59:34;;;;;;;2.22;1.75;;;17.70;99.90;;;;;;4972799;28;20029;-72
2022/09/13 06:02:00;;;;;;;2.90;2.20;;;17.70;99.90;;;;;;4974261;28;20070;-73
2022/09/13 06:04:27;;;;;;;4.22;1.58;;;17.70;99.90;;;;;;4924048;28;20094;-72
2022/09/13 06:06:52;;;;;;;3.00;1.65;;;17.70;99.90;;;;;;4958777;28;20054;-72
2022/09/13 06:09:24;;;;;;;3.60;1.55;;;17.70;99.90;;;;;;4974447;28;20050;-73
2022/09/13 06:11:50;;;;;;;2.80;1.40;;;17.70;99.90;;;;;;4973895;28;20501;-72
2022/09/13 06:14:16;;;;;;;2.55;1.70;;;17.60;99.90;;;;;;4926654;28;20059;-72
2022/09/13 06:16:49;;;;;;;2.45;1.67;;;17.60;99.90;;;;;;4929307;28;20214;-72
2022/09/13 06:19:16;;;;;;;2.42;1.40;;;17.60;99.90;;;;;;4976052;28;20063;-73
2022/09/13 06:21:42;;;;;;;2.83;1.63;;;17.60;99.90;;;;;;4926083;28;20087;-72
2022/09/13 06:24:26;;;;;;;6.72;1.77;;;17.60;99.90;;;;;;4974051;28;20454;-73
2022/09/13 06:26:52;;;;;;;2.55;1.50;;;17.70;99.90;;;;;;4973842;28;20051;-73
2022/09/13 06:29:22;;;;;;;3.95;1.58;;;17.70;99.90;;;;;;4958019;28;20093;-73
2022/09/13 06:31:55;;;;;;;2.80;1.67;;;17.70;99.90;;;;;;4973911;28;20046;-72
2022/09/13 06:34:21;;;;;;;3.38;1.67;;;17.70;99.90;;;;;;4940996;28;20118;-72
2022/09/13 06:36:49;;;;;;;3.08;1.50;;;17.70;99.90;;;;;;4941091;28;20047;-72
2022/09/13 06:39:36;;;;;;;1.95;1.70;;;17.70;99.90;;;;;;4974338;28;20051;-73
2022/09/13 06:42:02;;;;;;;5.13;2.22;;;17.70;99.90;;;;;;4957955;28;20054;-73
2022/09/13 06:44:29;;;;;;;5.97;2.03;;;17.80;99.90;;;;;;4958064;28;20046;-73
2022/09/13 06:46:59;;;;;;;3.30;1.70;;;17.80;99.90;;;;;;4941385;28;20567;-72
2022/09/13 06:49:25;;;;;;;2.67;1.75;;;17.90;99.90;;;;;;4957952;28;20126;-72
2022/09/13 06:52:02;;;;;;;3.45;2.03;;;18.00;99.90;;;;;;4927616;28;20061;-73
2022/09/13 06:54:28;;;;;;;3.60;2.57;;;18.10;99.90;;;;;;4941611;28;20055;-73
2022/09/13 06:56:55;;;;;;;4.38;2.10;;;18.10;99.90;;;;;;4925129;28;20540;-73
2022/09/13 06:59:23;;;;;;;3.55;2.08;;;18.20;99.90;;;;;;4923969;28;20054;-73
2022/09/13 07:01:55;;;;;;;3.10;1.80;;;18.20;99.90;;;;;;4941641;28;20051;-73
2022/09/13 07:04:31;;;;;;;5.30;1.60;;;18.30;99.90;;;;;;4973960;28;20061;-73
2022/09/13 07:06:58;;;;;;;4.32;1.92;;;18.40;99.90;;;;;;4957418;28;20046;-73
2022/09/13 07:09:28;;;;;;;3.80;1.98;;;18.50;99.90;;;;;;4973709;28;20055;-73
2022/09/13 07:11:55;;;;;;;5.35;1.73;;;18.60;99.90;;;;;;4970703;28;20062;-73
2022/09/13 07:14:23;;;;;;;3.80;1.83;;;18.70;99.90;;;;;;4957295;28;20518;-77
2022/09/13 07:16:50;;;;;;;4.25;2.10;;;18.80;99.90;;;;;;4956842;28;20051;-78
2022/09/13 07:19:34;;;;;;;7.53;2.17;;;18.90;99.90;;;;;;4973538;28;20108;-77
2022/09/13 07:22:00;;;;;;;2.88;1.70;;;19.00;99.90;;;;;;4957515;28;20051;-78
2022/09/13 07:24:27;;;;;;;4.03;1.38;;;19.20;99.90;;;;;;4956245;28;20054;-78
2022/09/13 07:26:53;;;;;;;2.00;1.80;;;19.30;99.90;;;;;;4924755;28;20532;-78
2022/09/13 07:29:30;;;;;;;3.88;1.75;;;19.40;99.90;;;;;;4956498;28;20046;-78
2022/09/13 07:32:02;;;;;;;;;;;19.50;99.90;;;;;;4972233;28;20062;-78
2022/09/13 07:34:42;;;;;;;2.47;1.30;;;19.40;99.90;;;;;;4958720;28;19925;-77
2022/09/13 07:37:07;;;;;;;3.10;1.50;;;19.90;99.90;;;;;;4956753;28;20050;-77
2022/09/13 07:39:35;;;;;;;2.97;1.25;;;20.80;99.90;;;;;;4956697;28;20394;-77
2022/09/13 07:42:06;;;;;;;1.95;1.23;;;22.00;99.90;;;;;;4957825;28;20051;-77
2022/09/13 07:44:32;;;;;;;2.67;1.58;;;22.80;99.90;;;;;;4956638;28;20085;-79
2022/09/13 07:47:14;;;;;;;1.55;1.33;;;22.80;99.90;;;;;;4943022;28;20066;-78
2022/09/13 07:49:47;;;;;;;6.20;1.45;;;22.70;99.90;;;;;;4928050;28;20068;-78
2022/09/13 07:52:12;;;;;;;4.45;1.25;;;22.70;99.90;;;;;;4925348;28;20054;-78
2022/09/13 07:54:38;;;;;;;6.38;1.30;;;23.10;99.90;;;;;;4973205;28;20515;-79
2022/09/13 07:57:05;;;;;;;3.20;1.15;;;23.60;99.90;;;;;;4941059;28;20076;-78
2022/09/13 07:59:38;;;;;;;3.38;1.20;;;23.20;99.90;;;;;;4940299;28;20478;-78
2022/09/13 08:02:05;;;;;;;3.30;1.13;;;22.80;99.90;;;;;;4925016;28;20508;-79
2022/09/13 08:04:37;;;;;;;2.53;1.13;;;23.70;99.90;;;;;;4973684;28;20046;-78
2022/09/13 08:07:04;;;;;;;3.17;1.40;;;24.20;99.90;;;;;;4940798;28;20046;-76
2022/09/13 08:09:31;;;;;;;2.90;0.98;;;23.40;99.90;;;;;;4956155;28;20051;-78
2022/09/13 08:11:57;;;;;;;5.72;1.02;;;22.80;99.90;;;;;;4941224;28;20497;-78
2022/09/13 08:14:25;;;;;;;2.95;1.02;;;22.00;99.90;;;;;;4925201;28;20051;-77
2022/09/13 08:16:58;;;;;;;4.45;1.20;;;21.40;99.90;;;;;;4972817;28;20145;-78
2022/09/13 08:19:23;;;;;;;1.83;0.82;;;21.10;99.90;;;;;;4924784;28;20043;-77
2022/09/13 08:21:58;;;;;;;1.83;1.10;;;21.50;99.90;;;;;;4924820;28;20494;-77
2022/09/13 08:24:25;;;;;;;2.92;1.02;;;22.50;99.90;;;;;;4972604;28;20352;-77
2022/09/13 08:26:53;;;;;;;6.65;1.23;;;23.80;99.90;;;;;;4940470;28;20515;-78
2022/09/13 08:29:19;;;;;;;2.08;1.38;;;24.30;99.90;;;;;;4956959;28;20090;-78
2022/09/13 08:31:49;;;;;;;3.47;1.20;;;25.40;99.30;;;;;;4956608;28;20047;-78
2022/09/13 08:34:15;;;;;;;4.50;1.02;;;25.70;96.70;;;;;;4972405;28;20050;-78
2022/09/13 08:36:42;;;;;;;4.25;1.05;;;26.00;98.10;;;;;;4972326;28;20503;-74
2022/09/13 08:39:12;;;;;;;3.42;1.08;;;25.60;93.90;;;;;;4956411;28;20349;-74
2022/09/13 08:42:02;;;;;;;3.38;1.20;;;24.90;97.40;;;;;;4956846;28;20082;-74
2022/09/13 08:44:32;;;;;;;1.63;0.80;;;24.00;96.90;;;;;;4956702;28;20050;-75
2022/09/13 08:47:47;;;;;;;2.65;1.25;;;23.40;99.20;;;;;;4955906;28;20047;-74
2022/09/13 08:50:26;;;;;;;2.22;0.77;;;23.50;98.20;;;;;;4956624;28;20061;-79
2022/09/13 08:53:24;;;;;;;2.97;1.40;;;22.90;99.90;;;;;;4955978;28;20050;-74
2022/09/13 08:56:14;;;;;;;7.55;1.23;;;22.40;98.10;;;;;;4956218;28;20105;-77
2022/09/13 08:59:08;;;;;;;5.88;1.38;;;23.60;98.30;;;;;;4941834;28;20094;-74
2022/09/13 09:01:58;;;;;;;1.90;1.45;;;23.80;95.50;;;;;;4959708;28;20146;-75
2022/09/13 09:04:37;;;;;;;3.55;1.13;;;22.50;95.50;;;;;;4959170;28;20094;-74
2022/09/13 09:07:39;;;;;;;3.83;1.10;;;22.70;98.50;;;;;;4959207;28;20261;-74
2022/09/13 09:10:19;;;;;;;5.40;1.10;;;23.70;95.10;;;;;;4937103;28;20448;-74
2022/09/13 09:12:59;;;;;;;4.68;1.02;;;25.20;94.90;;;;;;4959892;28;20481;-74
2022/09/13 09:15:34;;;;;;;4.07;1.30;;;26.20;93.30;;;;;;4959606;28;20507;-74
2022/09/13 09:18:11;;;;;;;4.78;1.15;;;27.20;94.20;;;;;;4976729;28;20058;-73
2022/09/13 09:20:48;;;;;;;3.42;1.00;;;27.60;88.90;;;;;;4943262;28;20043;-74
2022/09/13 09:23:23;;;;;;;3.22;0.80;;;27.80;91.30;;;;;;4959518;28;20055;-75
2022/09/13 09:26:05;;;;;;;4.60;0.90;;;26.90;91.10;;;;;;4974599;28;20117;-74
2022/09/13 09:28:54;;;;;;;2.60;0.65;;;26.60;90.10;;;;;;4959335;28;20073;-75
2022/09/13 09:32:02;;;;;;;2.53;0.90;;;24.90;90.60;;;;;;4976151;28;20051;-72
2022/09/13 09:34:47;;;;;;;;;;;23.40;91.70;;;;;;4975531;28;20082;-72
2022/09/13 09:37:33;;;;;;;7.53;1.35;;;22.70;91.70;;;;;;4958983;28;20334;-72
2022/09/13 09:40:10;;;;;;;2.92;0.88;;;24.10;92.50;;;;;;4975673;28;20089;-72
2022/09/13 09:42:48;;;;;;;2.20;1.02;;;25.30;93.00;;;;;;4943322;28;20046;-73
2022/09/13 09:45:34;;;;;;;4.38;1.25;;;26.30;89.80;;;;;;4943262;28;20078;-73
2022/09/13 09:48:11;;;;;;;6.10;1.00;;;26.60;85.80;;;;;;4942914;28;20437;-72
2022/09/13 09:50:50;;;;;;;1.83;0.77;;;27.10;90.20;;;;;;4974838;28;20047;-72
2022/09/13 09:53:33;;;;;;;4.50;1.08;;;26.60;86.20;;;;;;4958762;28;20051;-73
2022/09/13 09:56:04;;;;;;;1.42;0.77;;;25.60;85.30;;;;;;4958792;28;20054;-72
2022/09/13 09:58:44;;;;;;;3.33;0.98;;;25.70;90.10;;;;;;4958154;28;20062;-72
2022/09/13 10:01:38;;;;;;;3.78;1.10;;;26.20;86.40;;;;;;4958361;28;20077;-73
2022/09/13 10:04:11;;;;;;;5.70;0.98;;;26.90;87.80;;;;;;4958947;28;20051;-73
2022/09/13 10:06:46;;;;;;;4.78;1.02;;;27.30;86.30;;;;;;4958539;28;20047;-72
2022/09/13 10:09:27;;;;;;;2.90;0.70;;;27.70;85.10;;;;;;4974414;28;20193;-72
2022/09/13 10:11:59;;;;;;;1.77;0.90;;;28.00;82.10;;;;;;4959821;28;20050;-72
2022/09/13 10:14:57;;;;;;;1.85;0.90;;;28.50;86.70;;;;;;4972945;28;20063;-72
2022/09/13 10:17:42;;;;;;;2.00;0.98;;;28.80;82.70;;;;;;4958074;28;20510;-73
2022/09/13 10:20:14;;;;;;;2.80;1.05;;;28.60;84.50;;;;;;4957999;28;20194;-73
2022/09/13 10:22:42;;;;;;;1.80;1.05;;;27.80;79.90;;;;;;4958126;28;20494;-73
2022/09/13 10:25:22;;;;;;;6.05;2.72;;;27.60;81.80;;;;;;4941323;28;20148;-73
2022/09/13 10:27:53;;;;;;;4.95;0.88;;;28.00;81.20;;;;;;4957126;28;20101;-73
2022/09/13 10:30:36;;;;;;;1.63;0.90;;;28.40;82.60;;;;;;4958272;28;20117;-73
2022/09/13 10:33:04;;;;;;;1.55;0.90;;;28.80;80.10;;;;;;4957225;28;20125;-74
2022/09/13 10:35:36;;;;;;;2.13;0.73;;;28.90;79.90;;;;;;4957610;28;20174;-74
2022/09/13 10:38:15;;;;;;;2.15;1.38;;;28.40;80.10;;;;;;4974238;28;20109;-74
2022/09/13 10:40:47;;;;;;;4.15;2.15;;;28.30;79.50;;;;;;4973668;28;20047;-74
2022/09/13 10:43:18;;;;;;;4.25;1.58;;;27.20;80.00;;;;;;4973880;28;20057;-73
2022/09/13 10:45:50;;;;;;;3.90;1.40;;;26.30;83.80;;;;;;4973869;28;20049;-73
2022/09/13 10:48:27;;;;;;;4.17;1.63;;;26.10;84.90;;;;;;4957756;28;20039;-75
2022/09/13 10:51:25;;;;;;;2.28;1.20;;;25.60;85.90;;;;;;4957551;28;20066;-73
2022/09/13 10:54:30;;;;;;;2.03;0.90;;;24.20;85.20;;;;;;4954007;28;20055;-72
2022/09/13 10:56:59;;;;;;;3.63;1.00;;;23.80;87.60;;;;;;4957349;28;20383;-72
2022/09/13 10:59:28;;;;;;;3.35;1.20;;;23.50;89.80;;;;;;4957584;28;20122;-81
2022/09/13 11:05:53;;;;;;;9.20;1.20;;;23.00;90.20;;;;;;4956941;28;20446;-80
2022/09/13 11:08:40;;;;;;;3.80;1.15;;;22.80;90.70;;;;;;4884314;29;20147;-79
2022/09/13 11:11:39;;;;;;;6.10;1.40;;;22.60;90.60;;;;;;4957777;28;20058;-77
2022/09/13 11:14:42;;;;;;;3.03;0.85;;;22.50;91.10;;;;;;4964083;28;20527;-79
2022/09/13 11:17:45;;;;;;;2.15;1.00;;;22.50;91.00;;;;;;4957448;28;20101;-78
2022/09/13 11:20:45;;;;;;;3.63;1.25;;;22.60;90.40;;;;;;4956643;28;20522;-76
2022/09/13 11:23:42;;;;;;;5.57;1.02;;;22.50;89.60;;;;;;4956821;28;20058;-78
2022/09/13 11:26:45;;;;;;;3.17;0.95;;;22.40;89.80;;;;;;4956895;28;20050;-78
2022/09/13 11:29:23;;;;;;;;;;;22.30;89.60;;;;;;4956797;28;20054;-77
2022/09/13 11:32:03;;;;;;;;;;;22.20;89.50;;;;;;4957758;28;19928;-78
2022/09/13 11:35:07;;;;;;;3.28;0.90;;;22.30;90.80;;;;;;4957143;28;19918;-78
2022/09/13 11:37:58;;;;;;;2.33;0.75;;;22.40;88.70;;;;;;4957260;28;20058;-77
2022/09/13 11:40:58;;;;;;;4.88;0.93;;;22.60;89.00;;;;;;4937855;28;20134;-80
2022/09/13 11:44:14;;;;;;;2.42;1.33;;;22.60;89.60;;;;;;4956816;28;20125;-77
2022/09/13 11:47:17;;;;;;;3.28;1.10;;;22.40;89.20;;;;;;4973316;28;20049;-77
2022/09/13 11:50:09;;;;;;;5.35;0.90;;;22.40;89.40;;;;;;4973465;28;20047;-78
2022/09/13 11:52:41;;;;;;;2.28;0.88;;;22.40;90.20;;;;;;4956447;28;20131;-78
2022/09/13 11:56:04;;;;;;;4.53;1.10;;;22.40;87.80;;;;;;4957346;28;20047;-80
2022/09/13 11:58:56;;;;;;;3.30;1.08;;;22.50;88.50;;;;;;4934700;29;20051;-78
2022/09/13 12:01:39;;;;;;;1.90;1.33;;;22.60;88.10;;;;;;4923613;29;20051;-77
2022/09/13 12:04:23;;;;;;;4.05;1.33;;;22.60;87.20;;;;;;4969516;28;20073;-80
2022/09/13 12:07:12;;;;;;;3.53;0.93;;;22.40;88.80;;;;;;4953604;29;20089;-78
2022/09/13 12:09:45;;;;;;;3.40;1.17;;;22.30;89.90;;;;;;4937558;29;20063;-76
2022/09/13 12:12:13;;;;;;;1.77;1.00;;;22.30;88.80;;;;;;4953523;29;20140;-77
2022/09/13 12:14:57;;;;;;;4.07;1.10;;;22.20;89.50;;;;;;4922009;29;20043;-79
2022/09/13 12:17:36;;;;;;;1.40;0.80;;;22.10;89.20;;;;;;4953486;29;20063;-78
2022/09/13 12:20:45;;;;;;;2.63;1.02;;;22.20;90.20;;;;;;4899857;29;20539;-80
2022/09/13 12:23:43;;;;;;;3.60;1.17;;;22.20;90.10;;;;;;4914286;29;20071;-76
2022/09/13 12:26:59;;;;;;;2.42;1.00;;;22.10;90.20;;;;;;4900565;29;20079;-78
2022/09/13 12:30:08;;;;;;;2.00;1.30;;;21.90;90.90;;;;;;4898064;29;20060;-76
2022/09/13 12:32:49;;;;;;;1.95;1.20;;;21.80;91.10;;;;;;4914569;29;20052;-78
2022/09/13 12:35:44;;;;;;;5.07;1.10;;;21.80;91.30;;;;;;4901672;29;20051;-77
2022/09/13 12:38:21;;;;;;;2.70;1.58;;;21.90;90.80;;;;;;4902323;29;20532;-78
2022/09/13 12:41:23;;;;;;;5.20;1.55;;;21.80;90.30;;;;;;4886120;29;20512;-79
2022/09/13 12:44:27;;;;;;;4.03;1.52;;;21.70;90.30;;;;;;4886204;29;20052;-78
2022/09/13 12:47:12;;;;;;;1.90;0.93;;;21.80;91.10;;;;;;4901629;29;20103;-77
2022/09/13 12:50:23;;;;;;;2.90;1.15;;;21.80;90.80;;;;;;4917526;29;20051;-80
2022/09/13 12:53:27;;;;;;;6.25;1.27;;;21.80;91.60;;;;;;4901566;29;20048;-78
2022/09/13 12:56:19;;;;;;;3.88;1.45;;;21.90;91.20;;;;;;4886507;29;20062;-78
2022/09/13 12:59:12;;;;;;;4.85;1.50;;;21.80;91.60;;;;;;4937565;29;20098;-78
2022/09/13 13:01:45;;;;;;;4.65;1.23;;;21.70;91.20;;;;;;4973138;28;20059;-79
2022/09/13 13:04:22;;;;;;;5.57;1.38;;;21.60;91.40;;;;;;4956296;28;20063;-78
2022/09/13 13:06:58;;;;;;;7.30;1.60;;;21.60;91.00;;;;;;4940052;29;20049;-78
2022/09/13 13:09:52;;;;;;;3.85;1.20;;;21.90;91.40;;;;;;4927825;29;20053;-79
2022/09/13 13:12:45;;;;;;;2.88;1.10;;;21.80;90.60;;;;;;4956555;28;20132;-78
2022/09/13 13:15:14;;;;;;;5.40;1.83;;;22.00;91.60;;;;;;4956556;29;20047;-82
2022/09/13 13:18:23;;;;;;;4.80;1.33;;;21.80;91.20;;;;;;4940802;29;20102;-77
2022/09/13 13:20:55;;;;;;;4.57;1.52;;;21.50;91.60;;;;;;4968999;28;20055;-77
2022/09/13 13:23:26;;;;;;;2.65;1.40;;;21.50;91.70;;;;;;4940152;29;20050;-78
2022/09/13 13:26:17;;;;;;;3.85;1.27;;;21.60;91.50;;;;;;4940714;29;20051;-78
2022/09/13 13:28:46;;;;;;;2.47;1.52;;;21.40;91.70;;;;;;4956577;29;20059;-79
2022/09/13 13:31:32;;;;;;;7.63;1.85;;;21.50;91.90;;;;;;4972606;28;20535;-78
2022/09/13 13:34:31;;;;;;;4.35;1.65;;;21.20;91.90;;;;;;4956941;28;20098;-80
2022/09/13 13:37:19;;;;;;;5.53;1.38;;;21.40;92.60;;;;;;4956566;29;20043;-79
2022/09/13 13:40:19;;;;;;;4.88;1.40;;;21.20;91.80;;;;;;4971925;28;20448;-80
2022/09/13 13:43:14;;;;;;;5.50;1.73;;;21.30;92.30;;;;;;4956025;28;20109;-79
2022/09/13 13:46:19;;;;;;;5.43;1.65;;;21.40;92.10;;;;;;4956233;29;20047;-78
2022/09/13 13:48:51;;;;;;;4.20;1.10;;;21.50;92.20;;;;;;4938953;29;20047;-78